NCAR-RAP Real-Time Weather Data

Output produced by METARs form (05 July 2022  07:00 UTC)
found at http://weather.rap.ucar.edu/surface/
 
KIAD 050652Z 20003KT 6SM HZ SCT250 21/17 A3012 RMK AO2 SLP195 T02060167 $
KIAD 050552Z 16003KT 7SM SCT250 21/16 A3012 RMK AO2 SLP196 T02110156 10283 20189 58011 $
KIAD 050452Z 00000KT 8SM SCT250 20/15 A3013 RMK AO2 SLP201 T02000150 403170161 $
KIAD 050352Z 16004KT 9SM CLR 21/15 A3015 RMK AO2 SLP205 T02110150 $
KIAD 050252Z 16003KT 10SM FEW200 21/15 A3015 RMK AO2 SLP207 T02060150 50005 $
KIAD 050152Z 19005KT 10SM FEW100 SCT200 24/16 A3015 RMK AO2 SLP208 T02390156 $
KIAD 050052Z 11004KT 10SM FEW090 BKN200 26/14 A3014 RMK AO2 SLP202 T02560144 $
KIAD 042352Z 06003KT 10SM FEW090 BKN200 28/13 A3013 RMK AO2 SLP202 T02780133 10317 20278 55000 $
KIAD 042252Z 31005KT 10SM FEW090 SCT200 31/12 A3013 RMK AO2 SLP199 T03060122 $
KIAD 042152Z COR 28006KT 10SM SCT250 31/13 A3013 RMK AO2 SLP201 T03110128 $
KIAD 042052Z COR 25003KT 10SM FEW100 BKN200 32/11 A3014 RMK AO2 SLP202 T03170111 56014 $
KIAD 041952Z COR 00000KT 10SM FEW070 BKN250 31/12 A3015 RMK AO2 SLP206 T03110117 $
KIAD 041852Z VRB04KT 10SM FEW070 SCT250 30/11 A3015 RMK AO2 SLP208 T03000106 $
KIAD 041752Z VRB03KT 10SM FEW070 SCT250 30/12 A3018 RMK AO2 SLP216 T03000117 10300 20228 58012 $
KIAD 041652Z VRB03KT 10SM FEW250 30/12 A3020 RMK AO2 SLP223 T03000122 $
KIAD 041552Z 18004KT 10SM FEW250 28/13 A3020 RMK AO2 SLP225 T02830128 $
KIAD 041452Z VRB03KT 10SM FEW250 28/14 A3021 RMK AO2 SLP228 T02780139 51007 $